Time;durP1;ratioP1;P1;durP2;ratioP2;P2;SDS_P1;SDS_P2;PMS_P1;PMS_P2;Temp;Humidity;BMP_temperature;BMP_pressure;BME280_temperature;BME280_humidity;BME280_pressure;Samples;Min_cycle;Max_cycle;Signal;HPM_P1;HPM_P2
2024/01/13 00:04:31;;;;;;;1.23;0.73;;;6.10;99.90;;;;;;10369961;28;20084;-70
2024/01/13 00:09:32;;;;;;;2.45;1.08;;;6.10;99.90;;;;;;10371422;28;20034;-70
2024/01/13 00:14:32;;;;;;;1.52;0.90;;;6.10;99.90;;;;;;10373539;28;20027;-70
2024/01/13 00:19:33;;;;;;;1.48;1.08;;;6.10;99.90;;;;;;10376214;28;20072;-70
2024/01/13 00:24:34;;;;;;;1.15;0.73;;;6.10;99.90;;;;;;10372410;28;20049;-70
2024/01/13 00:29:34;;;;;;;1.48;0.80;;;6.10;99.90;;;;;;10369848;28;20446;-70
2024/01/13 00:34:35;;;;;;;1.13;0.70;;;6.10;99.90;;;;;;10379543;28;20859;-70
2024/01/13 00:39:35;;;;;;;1.15;0.70;;;6.10;99.90;;;;;;10381460;28;20475;-70
2024/01/13 00:44:36;;;;;;;1.52;0.70;;;6.10;99.90;;;;;;10374571;28;20025;-70
2024/01/13 00:49:37;;;;;;;0.93;0.52;;;6.10;99.90;;;;;;10377984;28;20032;-71
2024/01/13 00:54:38;;;;;;;1.73;0.75;;;6.10;99.90;;;;;;10376285;28;20072;-71
2024/01/13 00:59:39;;;;;;;1.83;0.95;;;6.10;99.90;;;;;;10369910;28;20025;-70
2024/01/13 01:04:39;;;;;;;2.30;0.70;;;6.10;99.90;;;;;;10370871;28;20049;-70
2024/01/13 01:09:41;;;;;;;1.13;0.70;;;6.60;99.90;;;;;;10358358;28;20113;-70
2024/01/13 01:14:41;;;;;;;1.40;0.77;;;6.10;99.90;;;;;;10376175;28;20019;-70
2024/01/13 01:19:42;;;;;;;1.15;0.70;;;6.10;99.90;;;;;;10361295;28;20018;-70
2024/01/13 01:24:42;;;;;;;1.33;0.68;;;6.10;99.90;;;;;;10371659;28;20053;-70
2024/01/13 01:29:43;;;;;;;1.40;0.65;;;6.10;99.90;;;;;;10368988;28;20038;-70
2024/01/13 01:34:43;;;;;;;0.88;0.70;;;6.10;99.90;;;;;;10370181;28;20092;-70
2024/01/13 01:39:44;;;;;;;1.63;0.90;;;6.10;99.90;;;;;;10370795;28;20121;-71
2024/01/13 01:44:45;;;;;;;1.60;0.60;;;6.10;99.90;;;;;;10360636;28;20018;-70
2024/01/13 01:49:46;;;;;;;1.17;0.73;;;6.10;99.90;;;;;;10369840;28;20026;-70
2024/01/13 01:54:47;;;;;;;0.93;0.63;;;6.10;99.90;;;;;;10352409;28;20069;-70
2024/01/13 01:59:48;;;;;;;1.38;0.63;;;6.10;99.90;;;;;;10369050;28;20318;-70
2024/01/13 02:04:49;;;;;;;1.13;0.77;;;6.10;99.90;;;;;;10361555;28;20047;-70
2024/01/13 02:09:50;;;;;;;1.17;0.77;;;6.10;99.90;;;;;;10374184;28;20018;-70
2024/01/13 02:14:51;;;;;;;0.80;0.70;;;6.10;99.90;;;;;;10377071;28;20079;-70
2024/01/13 02:19:52;;;;;;;1.58;0.90;;;6.10;99.90;;;;;;10378052;28;20046;-70
2024/01/13 02:24:52;;;;;;;1.00;0.60;;;6.10;99.90;;;;;;10380604;28;20391;-70
2024/01/13 02:29:53;;;;;;;1.02;0.60;;;6.10;99.90;;;;;;10383020;28;20658;-70
2024/01/13 02:34:54;;;;;;;0.68;0.57;;;6.10;99.90;;;;;;10380996;28;20056;-70
2024/01/13 02:39:54;;;;;;;0.88;0.60;;;7.20;99.90;;;;;;10386345;28;20374;-71
2024/01/13 02:44:55;;;;;;;1.35;0.65;;;6.10;99.90;;;;;;10378558;28;20014;-71
2024/01/13 02:49:55;;;;;;;0.90;0.63;;;6.10;99.90;;;;;;10382822;28;20037;-70
2024/01/13 02:54:56;;;;;;;0.70;0.60;;;6.10;99.90;;;;;;10379519;28;20025;-70
2024/01/13 02:59:56;;;;;;;0.93;0.52;;;6.10;99.90;;;;;;10359548;28;20029;-71
2024/01/13 03:04:57;;;;;;;1.30;0.70;;;6.10;99.90;;;;;;10380117;28;20390;-71
2024/01/13 03:09:57;;;;;;;0.68;0.55;;;6.10;99.90;;;;;;10383177;28;20017;-70
2024/01/13 03:14:58;;;;;;;1.23;0.90;;;6.10;99.90;;;;;;10371690;28;20067;-70
2024/01/13 03:19:59;;;;;;;0.65;0.52;;;6.10;99.90;;;;;;10379248;28;20030;-70
2024/01/13 03:24:59;;;;;;;0.90;0.75;;;6.10;99.90;;;;;;10372441;28;20018;-71
2024/01/13 03:30:00;;;;;;;1.65;0.80;;;6.10;99.90;;;;;;10361572;28;20034;-70
2024/01/13 03:35:00;;;;;;;1.20;0.60;;;6.10;99.90;;;;;;10356637;28;20022;-70
2024/01/13 03:40:01;;;;;;;1.13;0.60;;;6.10;99.90;;;;;;10359100;28;20038;-70
2024/01/13 03:45:02;;;;;;;1.27;0.70;;;6.10;99.90;;;;;;10365978;28;20019;-70
2024/01/13 03:50:06;;;;;;;1.10;0.55;;;6.10;99.90;;;;;;10354666;28;20049;-70
2024/01/13 03:55:07;;;;;;;1.00;0.90;;;6.10;99.90;;;;;;10365202;28;20017;-70
2024/01/13 04:00:08;;;;;;;1.77;0.73;;;6.10;99.90;;;;;;10345938;28;20030;-71
2024/01/13 04:05:09;;;;;;;1.33;0.65;;;6.10;99.90;;;;;;10361056;28;20026;-71
2024/01/13 04:10:09;;;;;;;1.00;0.60;;;6.10;99.90;;;;;;10355693;28;20531;-70
2024/01/13 04:15:10;;;;;;;0.63;0.60;;;6.10;99.90;;;;;;10361882;28;20042;-70
2024/01/13 04:20:11;;;;;;;1.23;0.65;;;6.10;99.90;;;;;;10350588;28;20038;-70
2024/01/13 04:25:11;;;;;;;1.00;0.70;;;6.10;99.90;;;;;;10363468;28;20029;-70
2024/01/13 04:30:12;;;;;;;1.17;0.60;;;6.10;99.90;;;;;;10361244;28;20038;-70
2024/01/13 04:35:13;;;;;;;1.80;0.60;;;6.10;99.90;;;;;;10356893;28;20018;-70
2024/01/13 04:40:13;;;;;;;0.73;0.73;;;6.10;99.90;;;;;;10357567;28;20118;-70
2024/01/13 04:45:14;;;;;;;1.48;0.68;;;6.10;99.90;;;;;;10360624;28;20031;-71
2024/01/13 04:50:15;;;;;;;1.23;0.75;;;6.10;99.90;;;;;;10369440;28;20417;-71
2024/01/13 04:55:15;;;;;;;0.80;0.70;;;6.10;99.90;;;;;;10374036;28;20030;-71
2024/01/13 05:00:16;;;;;;;1.00;0.57;;;6.10;99.90;;;;;;10350205;28;20026;-70
2024/01/13 05:05:17;;;;;;;0.73;0.50;;;6.10;99.90;;;;;;10375390;28;20025;-71
2024/01/13 05:10:17;;;;;;;1.17;0.73;;;6.10;99.90;;;;;;10373018;28;20535;-71
2024/01/13 05:15:18;;;;;;;1.20;0.60;;;6.10;99.90;;;;;;10381720;28;20393;-70
2024/01/13 05:20:19;;;;;;;1.33;0.52;;;6.10;99.90;;;;;;10373360;28;20041;-71
2024/01/13 05:25:20;;;;;;;0.73;0.40;;;6.10;99.90;;;;;;10374938;28;20035;-71
2024/01/13 05:30:20;;;;;;;0.90;0.68;;;6.10;99.90;;;;;;10367285;28;20038;-70
2024/01/13 05:35:21;;;;;;;0.98;0.50;;;6.10;99.90;;;;;;10370746;28;20029;-70
2024/01/13 05:40:22;;;;;;;1.38;0.80;;;6.10;99.90;;;;;;10374156;28;20032;-70
2024/01/13 05:45:22;;;;;;;0.90;0.60;;;6.10;99.90;;;;;;10370061;28;20017;-70
2024/01/13 05:50:23;;;;;;;0.60;0.45;;;6.10;99.90;;;;;;10375588;28;20025;-70
2024/01/13 05:55:23;;;;;;;1.27;0.60;;;6.10;99.90;;;;;;10353610;28;20470;-71
2024/01/13 06:00:24;;;;;;;0.73;0.45;;;6.10;99.90;;;;;;10375413;28;20715;-70
2024/01/13 06:05:24;;;;;;;0.68;0.47;;;6.10;99.90;;;;;;10357688;28;20117;-71
2024/01/13 06:10:28;;;;;;;1.75;0.57;;;6.10;99.90;;;;;;10371721;28;20122;-70
2024/01/13 06:15:29;;;;;;;0.60;0.60;;;6.10;99.90;;;;;;10359223;28;20025;-71
2024/01/13 06:20:29;;;;;;;0.50;0.50;;;6.10;99.90;;;;;;10372560;28;20029;-71
2024/01/13 06:25:32;;;;;;;0.50;0.22;;;6.10;99.90;;;;;;10379058;28;20022;-71
2024/01/13 06:30:32;;;;;;;0.90;0.57;;;6.10;99.90;;;;;;10372746;28;20030;-70
2024/01/13 06:35:33;;;;;;;0.80;0.50;;;6.10;99.90;;;;;;10375206;28;20025;-71
2024/01/13 06:40:33;;;;;;;1.10;0.77;;;6.10;99.90;;;;;;10351656;28;20041;-71
2024/01/13 06:45:34;;;;;;;1.05;0.40;;;6.10;99.90;;;;;;10371872;28;20030;-70
2024/01/13 06:50:35;;;;;;;0.80;0.50;;;6.10;99.90;;;;;;10358168;28;20563;-70
2024/01/13 06:55:35;;;;;;;0.30;0.30;;;6.10;99.90;;;;;;10366864;28;20057;-70
2024/01/13 07:00:37;;;;;;;1.00;0.40;;;6.10;99.90;;;;;;10373711;28;20044;-71
2024/01/13 07:05:38;;;;;;;0.40;0.40;;;6.10;99.90;;;;;;10361831;28;20014;-71
2024/01/13 07:10:39;;;;;;;0.60;0.40;;;6.10;99.90;;;;;;10373459;28;20038;-70
2024/01/13 07:15:39;;;;;;;0.70;0.45;;;6.10;99.90;;;;;;10370017;28;20018;-70
2024/01/13 07:20:40;;;;;;;1.05;0.43;;;6.10;99.90;;;;;;10368281;28;20037;-70
2024/01/13 07:25:41;;;;;;;1.35;0.60;;;6.20;99.90;;;;;;10368465;28;20029;-72
2024/01/13 07:30:41;;;;;;;0.90;0.60;;;6.10;99.90;;;;;;10372569;28;20045;-71
2024/01/13 07:35:42;;;;;;;0.40;0.30;;;6.10;99.90;;;;;;10367189;28;20457;-71
2024/01/13 07:40:42;;;;;;;0.57;0.30;;;6.10;99.90;;;;;;10372529;28;20133;-71
2024/01/13 07:45:43;;;;;;;0.68;0.30;;;6.10;99.90;;;;;;10356084;28;20034;-69
2024/01/13 07:50:44;;;;;;;0.70;0.50;;;6.10;99.90;;;;;;10368865;28;20026;-69
2024/01/13 07:55:45;;;;;;;1.60;0.35;;;6.10;99.90;;;;;;10371412;28;20099;-70
2024/01/13 08:00:45;;;;;;;0.47;0.40;;;6.10;99.90;;;;;;10362432;28;20022;-70
2024/01/13 08:05:46;;;;;;;0.57;0.30;;;6.10;99.90;;;;;;10360622;28;20034;-70
2024/01/13 08:10:46;;;;;;;0.40;0.30;;;6.10;99.90;;;;;;10368584;28;20037;-70
2024/01/13 08:15:47;;;;;;;0.50;0.30;;;6.10;99.90;;;;;;10361361;28;20502;-70
2024/01/13 08:20:47;;;;;;;1.13;0.50;;;6.10;99.90;;;;;;10372418;28;20409;-70
2024/01/13 08:25:48;;;;;;;0.63;0.30;;;6.10;99.90;;;;;;10366775;28;20037;-70
2024/01/13 08:30:49;;;;;;;0.32;0.30;;;6.10;99.90;;;;;;10384365;28;20044;-70
2024/01/13 08:35:49;;;;;;;0.80;0.50;;;6.20;99.90;;;;;;10367126;28;20113;-70
2024/01/13 08:40:50;;;;;;;0.40;0.38;;;6.20;99.90;;;;;;10368968;28;20406;-70
2024/01/13 08:45:50;;;;;;;0.88;0.50;;;6.20;99.90;;;;;;10371211;28;20632;-70
2024/01/13 08:50:51;;;;;;;0.60;0.40;;;6.20;99.90;;;;;;10380952;28;20036;-71
2024/01/13 08:55:51;;;;;;;1.73;0.63;;;6.20;99.90;;;;;;10374750;28;20037;-72
2024/01/13 09:00:56;;;;;;;1.05;0.60;;;6.20;99.90;;;;;;10380923;28;20065;-72
2024/01/13 09:05:57;;;;;;;0.88;0.45;;;6.20;99.90;;;;;;10381064;28;20018;-68
2024/01/13 09:10:57;;;;;;;1.30;0.55;;;6.20;99.90;;;;;;10359373;28;20026;-69
2024/01/13 09:15:58;;;;;;;2.05;0.90;;;6.20;99.90;;;;;;10378370;28;20038;-70
2024/01/13 09:20:59;;;;;;;1.10;0.63;;;6.20;99.90;;;;;;10377391;28;20172;-69
2024/01/13 09:26:02;;;;;;;1.35;0.68;;;6.30;99.90;;;;;;10383250;28;20112;-69
2024/01/13 09:31:03;;;;;;;1.92;0.80;;;6.30;99.90;;;;;;10383826;28;20124;-69
2024/01/13 09:36:04;;;;;;;1.90;0.65;;;6.20;99.90;;;;;;10375130;28;20052;-69
2024/01/13 09:41:06;;;;;;;2.95;1.20;;;6.20;99.90;;;;;;10387106;28;20026;-69
2024/01/13 09:46:06;;;;;;;1.40;1.00;;;6.20;99.90;;;;;;10379733;28;20109;-70
2024/01/13 09:51:07;;;;;;;5.72;1.63;;;6.20;99.90;;;;;;10370127;28;20040;-70
2024/01/13 09:56:17;;;;;;;4.05;2.55;;;6.30;99.90;;;;;;10369046;28;20084;-70
2024/01/13 10:01:18;;;;;;;4.50;1.90;;;6.30;99.90;;;;;;10360382;28;20088;-70
2024/01/13 10:06:19;;;;;;;3.45;1.60;;;6.30;99.90;;;;;;10348532;28;20080;-70
2024/01/13 10:11:19;;;;;;;6.00;2.47;;;6.30;99.90;;;;;;10370664;28;20382;-71
2024/01/13 10:16:20;;;;;;;4.28;2.08;;;6.30;99.90;;;;;;10369881;28;20021;-70
2024/01/13 10:21:22;;;;;;;5.25;2.03;;;6.30;99.90;;;;;;10358933;28;20092;-71
2024/01/13 10:26:26;;;;;;;8.18;3.47;;;6.30;99.90;;;;;;10365958;28;20029;-74
2024/01/13 10:31:30;;;;;;;6.43;3.00;;;6.30;99.90;;;;;;10358798;28;20112;-72
2024/01/13 10:36:31;;;;;;;7.72;3.63;;;6.30;99.90;;;;;;10367453;28;20057;-72
2024/01/13 10:41:35;;;;;;;8.40;3.65;;;6.30;99.90;;;;;;10374642;28;20034;-75
2024/01/13 10:46:41;;;;;;;10.55;3.90;;;6.30;99.90;;;;;;10365830;28;20018;-74
2024/01/13 10:51:54;;;;;;;8.70;4.35;;;6.30;99.90;;;;;;10352747;28;20115;-74
2024/01/13 10:56:55;;;;;;;16.88;7.25;;;6.30;99.90;;;;;;10337702;28;20033;-75
2024/01/13 11:01:58;;;;;;;15.90;7.63;;;6.30;99.90;;;;;;10362300;28;20032;-73
2024/01/13 11:07:00;;;;;;;18.33;7.97;;;6.30;99.90;;;;;;10367843;28;20018;-73
2024/01/13 11:12:24;;;;;;;24.60;8.90;;;6.20;99.90;;;;;;10366297;28;20108;-74
2024/01/13 11:17:26;;;;;;;23.65;9.93;;;6.20;99.90;;;;;;10367646;28;20130;-73
2024/01/13 11:22:34;;;;;;;22.38;9.32;;;6.30;99.90;;;;;;10367603;28;20037;-73
2024/01/13 11:27:34;;;;;;;26.70;11.52;;;6.30;99.90;;;;;;10343729;28;20650;-74
2024/01/13 11:32:38;;;;;;;23.30;10.07;;;6.30;99.90;;;;;;10367472;28;20069;-73
2024/01/13 11:37:40;;;;;;;29.15;11.38;;;6.30;99.90;;;;;;10364581;28;20084;-72
2024/01/13 11:42:42;;;;;;;24.05;11.30;;;6.30;99.90;;;;;;10372116;28;20592;-72
2024/01/13 11:47:42;;;;;;;31.15;11.45;;;6.30;99.90;;;;;;10365690;28;20064;-75
2024/01/13 11:52:43;;;;;;;27.48;10.40;;;6.30;99.90;;;;;;10365754;28;20474;-75
2024/01/13 11:57:44;;;;;;;21.80;9.15;;;6.30;99.90;;;;;;10373097;28;20050;-74
2024/01/13 12:02:45;;;;;;;26.02;11.40;;;6.30;99.90;;;;;;10375068;28;20049;-74
2024/01/13 12:07:46;;;;;;;25.33;10.43;;;6.30;99.90;;;;;;10368991;28;20105;-74
2024/01/13 12:12:46;;;;;;;25.67;10.93;;;6.30;99.90;;;;;;10368801;28;20025;-73
2024/01/13 12:17:47;;;;;;;27.05;11.45;;;6.30;99.90;;;;;;10373985;28;20034;-73
2024/01/13 12:22:48;;;;;;;27.08;10.57;;;6.30;99.90;;;;;;10361129;28;20025;-72
2024/01/13 12:27:49;;;;;;;26.90;10.13;;;6.40;99.90;;;;;;10372915;28;20818;-71
2024/01/13 12:32:50;;;;;;;29.55;11.45;;;6.40;99.90;;;;;;10369938;28;20041;-75
2024/01/13 12:37:51;;;;;;;26.10;11.07;;;6.60;99.90;;;;;;10357539;28;20498;-72
2024/01/13 12:42:52;;;;;;;29.70;11.52;;;6.60;99.90;;;;;;10367580;28;20605;-72
2024/01/13 12:47:54;;;;;;;23.23;10.55;;;6.70;99.90;;;;;;10377476;28;20022;-72
2024/01/13 12:52:57;;;;;;;27.60;11.52;;;6.70;99.90;;;;;;10374867;28;20022;-72
2024/01/13 12:57:58;;;;;;;25.15;11.48;;;6.60;99.90;;;;;;10373460;28;20033;-70
2024/01/13 13:02:58;;;;;;;25.33;10.48;;;6.60;99.90;;;;;;10368911;28;20026;-70
2024/01/13 13:07:59;;;;;;;24.92;10.32;;;6.60;99.90;;;;;;10369209;28;20025;-71
2024/01/13 13:13:04;;;;;;;24.85;9.60;;;6.60;99.90;;;;;;10374656;28;20025;-71
2024/01/13 13:18:05;;;;;;;22.50;9.25;;;6.70;99.90;;;;;;10350551;28;20033;-72
2024/01/13 13:23:07;;;;;;;20.75;9.30;;;6.60;99.90;;;;;;10383848;28;20414;-71
2024/01/13 13:28:07;;;;;;;19.90;8.35;;;6.70;99.90;;;;;;10374493;28;20031;-71
2024/01/13 13:33:08;;;;;;;16.98;8.00;;;6.70;99.90;;;;;;10384333;28;20042;-72
2024/01/13 13:38:08;;;;;;;20.25;8.90;;;6.70;99.90;;;;;;10379345;28;20026;-70
2024/01/13 13:43:09;;;;;;;18.33;7.57;;;6.70;99.90;;;;;;10375780;28;20029;-71
2024/01/13 13:48:09;;;;;;;20.80;7.57;;;6.70;99.90;;;;;;10376846;28;20108;-70
2024/01/13 13:53:10;;;;;;;19.40;8.02;;;6.70;99.90;;;;;;10367953;28;20064;-71
2024/01/13 13:58:11;;;;;;;15.35;7.28;;;6.70;99.90;;;;;;10358394;28;20033;-70
2024/01/13 14:03:11;;;;;;;14.82;6.55;;;6.70;99.90;;;;;;10342074;28;20041;-70
2024/01/13 14:08:12;;;;;;;16.90;7.05;;;6.70;99.90;;;;;;10354116;28;20022;-74
2024/01/13 14:13:13;;;;;;;14.00;6.68;;;6.70;99.90;;;;;;10359819;28;20025;-71
2024/01/13 14:18:13;;;;;;;14.10;6.05;;;6.80;99.90;;;;;;10362747;28;20034;-72
2024/01/13 14:23:14;;;;;;;12.82;6.15;;;6.80;99.90;;;;;;10335733;28;20022;-71
2024/01/13 14:28:15;;;;;;;11.73;6.05;;;6.80;99.90;;;;;;10353316;28;20023;-72
2024/01/13 14:33:16;;;;;;;14.23;6.28;;;6.80;99.90;;;;;;10351754;28;20065;-73
2024/01/13 14:38:16;;;;;;;12.77;5.80;;;6.90;99.90;;;;;;10361154;28;20168;-71
2024/01/13 14:43:17;;;;;;;12.32;4.95;;;7.00;99.90;;;;;;10357447;28;20037;-70
2024/01/13 14:48:18;;;;;;;11.30;5.22;;;6.90;99.90;;;;;;10355956;28;20041;-71
2024/01/13 14:53:19;;;;;;;12.98;5.60;;;6.90;99.90;;;;;;10344650;28;20057;-72
2024/01/13 14:58:19;;;;;;;10.77;4.78;;;6.90;99.90;;;;;;10358790;28;20267;-71
2024/01/13 15:03:20;;;;;;;9.18;4.70;;;6.90;99.90;;;;;;10357663;28;20539;-72
2024/01/13 15:08:21;;;;;;;8.57;4.50;;;6.90;99.90;;;;;;10356640;28;20629;-73
2024/01/13 15:13:22;;;;;;;10.30;4.38;;;6.90;99.90;;;;;;10352121;28;20033;-70
2024/01/13 15:18:23;;;;;;;11.93;4.72;;;6.90;99.90;;;;;;10358535;28;20083;-71
2024/01/13 15:23:23;;;;;;;10.68;4.70;;;6.90;99.90;;;;;;10359003;28;20353;-72
2024/01/13 15:28:24;;;;;;;8.40;4.18;;;6.90;99.90;;;;;;10364515;28;20482;-72
2024/01/13 15:33:25;;;;;;;9.90;4.38;;;6.90;99.90;;;;;;10358168;28;20422;-72
2024/01/13 15:38:25;;;;;;;6.97;3.55;;;6.90;99.90;;;;;;10353456;28;20644;-72
2024/01/13 15:43:26;;;;;;;9.93;4.30;;;6.90;99.90;;;;;;10359158;28;20520;-72
2024/01/13 15:48:26;;;;;;;5.90;3.50;;;6.90;99.90;;;;;;10356915;28;20022;-71
2024/01/13 15:53:27;;;;;;;7.13;3.45;;;6.90;99.90;;;;;;10366092;28;20037;-72
2024/01/13 15:58:28;;;;;;;7.13;3.17;;;6.90;99.90;;;;;;10361668;28;20344;-70
2024/01/13 16:03:29;;;;;;;8.77;3.33;;;6.90;99.90;;;;;;10334489;28;20124;-71
2024/01/13 16:08:29;;;;;;;8.25;3.50;;;6.90;99.90;;;;;;10367576;28;20452;-70
2024/01/13 16:13:30;;;;;;;5.75;3.05;;;6.80;99.90;;;;;;10352680;28;20072;-70
2024/01/13 16:18:31;;;;;;;7.15;3.40;;;6.80;99.90;;;;;;10357448;28;20482;-70
2024/01/13 16:23:33;;;;;;;6.30;3.13;;;6.80;99.90;;;;;;10363415;28;20446;-71
2024/01/13 16:28:33;;;;;;;5.20;2.88;;;6.80;99.90;;;;;;10360320;28;20080;-70
2024/01/13 16:33:34;;;;;;;8.68;3.25;;;7.40;99.90;;;;;;10359163;28;20076;-71
2024/01/13 16:38:35;;;;;;;6.13;3.05;;;6.80;99.90;;;;;;10358991;28;20045;-71
2024/01/13 16:43:36;;;;;;;5.05;2.60;;;6.80;99.90;;;;;;10368185;28;20505;-70
2024/01/13 16:48:37;;;;;;;4.88;2.65;;;6.80;99.90;;;;;;10365302;28;20030;-71
2024/01/13 16:53:37;;;;;;;6.28;2.60;;;6.80;99.90;;;;;;10346831;28;20483;-70
2024/01/13 16:58:38;;;;;;;4.43;2.70;;;6.80;99.90;;;;;;10365754;28;20096;-68
2024/01/13 17:03:40;;;;;;;5.05;2.53;;;6.80;99.90;;;;;;10367922;28;20022;-70
2024/01/13 17:08:41;;;;;;;4.53;2.35;;;6.80;99.90;;;;;;10372826;28;20061;-70
2024/01/13 17:13:42;;;;;;;5.30;2.40;;;6.80;99.90;;;;;;10363762;28;20436;-71
2024/01/13 17:18:46;;;;;;;5.40;2.55;;;6.80;99.90;;;;;;10369184;28;20306;-71
2024/01/13 17:23:47;;;;;;;6.72;3.20;;;6.80;99.90;;;;;;10348925;28;20542;-71
2024/01/13 17:28:48;;;;;;;5.05;2.22;;;6.80;99.90;;;;;;10351045;28;20034;-72
2024/01/13 17:33:50;;;;;;;7.90;2.70;;;6.80;99.90;;;;;;10345114;28;20512;-73
2024/01/13 17:38:51;;;;;;;4.53;2.35;;;8.20;99.90;;;;;;10368806;28;20056;-71
2024/01/13 17:43:52;;;;;;;4.65;2.38;;;6.80;99.90;;;;;;10366728;28;20498;-71
2024/01/13 17:48:53;;;;;;;7.25;2.50;;;6.80;99.90;;;;;;10346550;28;20029;-70
2024/01/13 17:53:55;;;;;;;4.63;2.10;;;6.80;99.90;;;;;;10363954;28;20036;-71
2024/01/13 17:58:56;;;;;;;5.18;2.90;;;6.80;99.90;;;;;;10350709;28;20026;-71
2024/01/13 18:03:56;;;;;;;4.10;2.20;;;6.90;99.90;;;;;;10374380;28;20033;-73
2024/01/13 18:08:57;;;;;;;4.18;2.50;;;6.80;99.90;;;;;;10369992;28;20095;-72
2024/01/13 18:13:57;;;;;;;5.05;2.55;;;6.80;99.90;;;;;;10369861;28;20029;-71
2024/01/13 18:18:58;;;;;;;6.65;3.08;;;6.80;99.90;;;;;;10377297;28;20030;-75
2024/01/13 18:23:59;;;;;;;2.70;1.80;;;6.80;99.90;;;;;;10363740;28;20030;-72
2024/01/13 18:28:59;;;;;;;4.03;2.10;;;6.80;99.90;;;;;;10371861;28;20040;-71
2024/01/13 18:34:00;;;;;;;5.10;2.05;;;6.70;99.90;;;;;;10364144;28;20032;-71
2024/01/13 18:39:00;;;;;;;4.00;1.90;;;6.80;99.90;;;;;;10350423;28;20040;-71
2024/01/13 18:44:01;;;;;;;6.53;1.92;;;6.80;99.90;;;;;;10362727;28;20014;-75
2024/01/13 18:49:03;;;;;;;3.47;2.13;;;8.00;99.90;;;;;;10374546;28;20049;-72
2024/01/13 18:54:04;;;;;;;3.90;1.98;;;6.90;99.90;;;;;;10363528;28;20033;-71
2024/01/13 18:59:04;;;;;;;4.55;2.08;;;6.90;99.90;;;;;;10366161;28;20029;-72
2024/01/13 19:04:05;;;;;;;4.13;2.15;;;6.90;99.90;;;;;;10353251;28;20063;-72
2024/01/13 19:09:06;;;;;;;3.40;2.13;;;6.90;99.90;;;;;;10362376;28;20121;-72
2024/01/13 19:14:08;;;;;;;3.10;2.15;;;6.80;99.90;;;;;;10361941;28;20045;-72
2024/01/13 19:19:09;;;;;;;8.48;2.53;;;6.80;99.90;;;;;;10347237;28;20102;-72
2024/01/13 19:24:10;;;;;;;5.35;2.50;;;6.80;99.90;;;;;;10373337;28;20045;-72
2024/01/13 19:29:10;;;;;;;3.60;2.28;;;6.80;99.90;;;;;;10372608;28;20039;-72
2024/01/13 19:34:11;;;;;;;5.38;1.98;;;6.80;99.90;;;;;;10368152;28;20034;-72
2024/01/13 19:39:12;;;;;;;4.10;2.50;;;8.10;99.90;;;;;;10356517;28;20029;-72
2024/01/13 19:44:14;;;;;;;3.45;2.10;;;6.80;99.90;;;;;;10364969;28;20011;-72
2024/01/13 19:49:15;;;;;;;3.53;2.10;;;6.80;99.90;;;;;;10373118;28;20026;-72
2024/01/13 19:54:15;;;;;;;4.85;2.17;;;6.80;99.90;;;;;;10367618;28;20029;-72
2024/01/13 19:59:16;;;;;;;2.90;2.08;;;6.80;99.90;;;;;;10359565;28;20038;-72
2024/01/13 20:04:16;;;;;;;4.38;1.70;;;6.80;99.90;;;;;;10363966;28;20040;-72
2024/01/13 20:09:17;;;;;;;3.15;1.73;;;6.80;99.90;;;;;;10361983;28;20030;-72
2024/01/13 20:14:18;;;;;;;3.63;2.00;;;6.70;99.90;;;;;;10363888;28;20406;-72
2024/01/13 20:19:18;;;;;;;2.75;1.60;;;6.80;99.90;;;;;;10354398;28;20045;-72
2024/01/13 20:24:20;;;;;;;4.40;1.70;;;6.70;99.90;;;;;;10371120;28;20025;-72
2024/01/13 20:29:21;;;;;;;2.83;1.80;;;6.70;99.90;;;;;;10363553;28;20044;-72
2024/01/13 20:34:23;;;;;;;2.78;1.77;;;6.80;99.90;;;;;;10376872;28;20026;-72
2024/01/13 20:39:23;;;;;;;4.35;1.80;;;6.70;99.90;;;;;;10352545;28;20057;-72
2024/01/13 20:44:25;;;;;;;4.28;1.98;;;6.70;99.90;;;;;;10377890;28;20100;-72
2024/01/13 20:49:26;;;;;;;3.28;1.75;;;6.70;99.90;;;;;;10382048;28;20517;-72
2024/01/13 20:54:27;;;;;;;4.60;1.55;;;6.70;99.90;;;;;;10354271;28;20029;-72
2024/01/13 20:59:27;;;;;;;2.08;1.48;;;6.70;99.90;;;;;;10373273;28;20470;-72
2024/01/13 21:04:28;;;;;;;7.75;1.90;;;6.70;99.90;;;;;;10372896;28;20029;-72
2024/01/13 21:09:29;;;;;;;4.10;1.92;;;6.70;99.90;;;;;;10366937;28;20026;-72
2024/01/13 21:14:30;;;;;;;3.80;1.50;;;6.70;99.90;;;;;;10367327;28;20030;-72
2024/01/13 21:19:30;;;;;;;3.50;1.48;;;6.70;99.90;;;;;;10357672;28;20053;-72
2024/01/13 21:24:31;;;;;;;1.85;1.05;;;7.90;99.90;;;;;;10369199;28;20033;-72
2024/01/13 21:29:32;;;;;;;2.83;1.23;;;6.70;99.90;;;;;;10358066;28;20053;-72
2024/01/13 21:34:33;;;;;;;2.15;1.30;;;6.70;99.90;;;;;;10374008;28;20026;-72
2024/01/13 21:39:33;;;;;;;2.38;1.45;;;6.70;99.90;;;;;;10359896;28;20030;-72
2024/01/13 21:44:34;;;;;;;3.65;1.48;;;6.60;99.90;;;;;;10354828;28;20025;-72
2024/01/13 21:49:37;;;;;;;2.95;1.52;;;6.60;99.90;;;;;;10362272;28;20046;-72
2024/01/13 21:54:38;;;;;;;2.67;1.30;;;6.60;99.90;;;;;;10347144;28;20462;-72
2024/01/13 21:59:38;;;;;;;2.00;1.13;;;6.60;99.90;;;;;;10368511;28;20121;-72
2024/01/13 22:04:39;;;;;;;2.22;1.38;;;6.60;99.90;;;;;;10369777;28;20026;-72
2024/01/13 22:09:40;;;;;;;2.45;1.08;;;6.60;99.90;;;;;;10346898;28;20034;-72
2024/01/13 22:14:40;;;;;;;2.35;1.50;;;6.70;99.90;;;;;;10370467;28;20474;-72
2024/01/13 22:19:41;;;;;;;1.80;1.25;;;6.60;99.90;;;;;;10359152;28;20414;-72
2024/01/13 22:24:42;;;;;;;2.22;1.20;;;6.60;99.90;;;;;;10367869;28;20494;-72
2024/01/13 22:29:43;;;;;;;3.35;1.42;;;6.80;99.90;;;;;;10365731;28;20022;-72
2024/01/13 22:34:43;;;;;;;1.63;1.13;;;6.60;99.90;;;;;;10364611;28;20045;-73
2024/01/13 22:39:44;;;;;;;2.65;1.05;;;6.60;99.90;;;;;;10367227;28;20026;-71
2024/01/13 22:44:45;;;;;;;2.80;1.40;;;6.80;99.90;;;;;;10375751;28;20051;-72
2024/01/13 22:49:45;;;;;;;2.38;1.00;;;6.90;99.90;;;;;;10349419;28;20112;-72
2024/01/13 22:54:46;;;;;;;1.98;1.00;;;6.90;99.90;;;;;;10366627;28;20088;-72
2024/01/13 22:59:46;;;;;;;4.93;0.95;;;6.90;99.90;;;;;;10347226;28;20022;-72
2024/01/13 23:04:47;;;;;;;4.20;1.40;;;6.80;99.90;;;;;;10365502;28;20080;-72
2024/01/13 23:09:49;;;;;;;3.15;0.95;;;6.80;99.90;;;;;;10371865;28;20023;-72
2024/01/13 23:14:52;;;;;;;1.83;0.90;;;6.80;99.90;;;;;;10372577;28;20022;-72
2024/01/13 23:19:53;;;;;;;3.00;0.90;;;6.80;99.90;;;;;;10372682;28;20079;-72
2024/01/13 23:24:53;;;;;;;2.35;0.98;;;6.80;99.90;;;;;;10373046;28;20023;-72
2024/01/13 23:29:54;;;;;;;1.42;0.85;;;6.80;99.90;;;;;;10386201;28;20033;-72
2024/01/13 23:34:57;;;;;;;1.67;0.82;;;6.80;99.90;;;;;;10374154;28;20017;-72
2024/01/13 23:39:57;;;;;;;1.95;0.80;;;6.70;99.90;;;;;;10379975;28;20117;-72
2024/01/13 23:44:58;;;;;;;1.45;0.95;;;6.70;99.90;;;;;;10374920;28;20026;-72
2024/01/13 23:49:58;;;;;;;2.60;0.85;;;6.70;99.90;;;;;;10380250;28;20049;-72
2024/01/13 23:54:59;;;;;;;1.00;0.65;;;6.70;99.90;;;;;;10375422;28;20029;-72
